sensor_id;sensor_type;location;lat;lon;timestamp;temperature;humidity
8067;DHT22;4076;48.076;9.118;2023-04-06T00:01:37;-1.20;84.20
8067;DHT22;4076;48.076;9.118;2023-04-06T00:04:02;-1.20;84.50
8067;DHT22;4076;48.076;9.118;2023-04-06T00:06:28;-1.20;85.10
8067;DHT22;4076;48.076;9.118;2023-04-06T00:08:55;-1.20;85.60
8067;DHT22;4076;48.076;9.118;2023-04-06T00:11:21;-1.20;86.80
8067;DHT22;4076;48.076;9.118;2023-04-06T00:13:46;-1.10;87.20
8067;DHT22;4076;48.076;9.118;2023-04-06T00:16:12;-1.00;85.40
8067;DHT22;4076;48.076;9.118;2023-04-06T00:18:37;-0.90;84.30
8067;DHT22;4076;48.076;9.118;2023-04-06T00:21:03;-1.00;83.10
8067;DHT22;4076;48.076;9.118;2023-04-06T00:23:29;-1.10;84.10
8067;DHT22;4076;48.076;9.118;2023-04-06T00:25:55;-1.10;83.10
8067;DHT22;4076;48.076;9.118;2023-04-06T00:28:21;-1.10;83.70
8067;DHT22;4076;48.076;9.118;2023-04-06T00:30:51;-1.20;84.60
8067;DHT22;4076;48.076;9.118;2023-04-06T00:33:18;-1.20;86.50
8067;DHT22;4076;48.076;9.118;2023-04-06T00:35:44;-1.30;88.20
8067;DHT22;4076;48.076;9.118;2023-04-06T00:38:09;-1.30;89.00
8067;DHT22;4076;48.076;9.118;2023-04-06T00:40:35;-1.30;90.00
8067;DHT22;4076;48.076;9.118;2023-04-06T00:43:01;-1.30;89.80
8067;DHT22;4076;48.076;9.118;2023-04-06T00:45:26;-1.40;90.00
8067;DHT22;4076;48.076;9.118;2023-04-06T00:47:52;-1.50;90.40
8067;DHT22;4076;48.076;9.118;2023-04-06T00:50:18;-1.60;90.80
8067;DHT22;4076;48.076;9.118;2023-04-06T00:52:43;-1.70;91.50
8067;DHT22;4076;48.076;9.118;2023-04-06T00:55:09;-1.70;92.90
8067;DHT22;4076;48.076;9.118;2023-04-06T00:57:35;-1.80;94.10
8067;DHT22;4076;48.076;9.118;2023-04-06T01:00:01;-1.80;94.80
8067;DHT22;4076;48.076;9.118;2023-04-06T01:02:26;-1.70;94.20
8067;DHT22;4076;48.076;9.118;2023-04-06T01:04:52;-1.60;94.60
8067;DHT22;4076;48.076;9.118;2023-04-06T01:07:19;-1.50;95.00
8067;DHT22;4076;48.076;9.118;2023-04-06T01:09:45;-1.20;94.40
8067;DHT22;4076;48.076;9.118;2023-04-06T01:12:10;-1.10;94.40
8067;DHT22;4076;48.076;9.118;2023-04-06T01:14:36;-1.00;94.80
8067;DHT22;4076;48.076;9.118;2023-04-06T01:17:02;-1.00;94.70
8067;DHT22;4076;48.076;9.118;2023-04-06T01:19:28;-1.00;95.00
8067;DHT22;4076;48.076;9.118;2023-04-06T01:21:53;-0.90;95.80
8067;DHT22;4076;48.076;9.118;2023-04-06T01:24:20;-0.90;96.30
8067;DHT22;4076;48.076;9.118;2023-04-06T01:26:45;-0.90;95.70
8067;DHT22;4076;48.076;9.118;2023-04-06T01:29:11;-1.00;95.60
8067;DHT22;4076;48.076;9.118;2023-04-06T01:31:37;-1.10;95.60
8067;DHT22;4076;48.076;9.118;2023-04-06T01:34:03;-1.20;96.20
8067;DHT22;4076;48.076;9.118;2023-04-06T01:36:28;-1.30;96.20
8067;DHT22;4076;48.076;9.118;2023-04-06T01:38:54;-1.40;97.10
8067;DHT22;4076;48.076;9.118;2023-04-06T01:41:19;-1.40;96.80
8067;DHT22;4076;48.076;9.118;2023-04-06T01:43:46;-1.40;97.10
8067;DHT22;4076;48.076;9.118;2023-04-06T01:46:12;-1.40;96.90
8067;DHT22;4076;48.076;9.118;2023-04-06T01:48:38;-1.60;97.70
8067;DHT22;4076;48.076;9.118;2023-04-06T01:51:03;-1.60;98.10
8067;DHT22;4076;48.076;9.118;2023-04-06T01:53:29;-1.60;97.70
8067;DHT22;4076;48.076;9.118;2023-04-06T01:55:55;-1.80;98.00
8067;DHT22;4076;48.076;9.118;2023-04-06T01:58:20;-1.80;98.00
8067;DHT22;4076;48.076;9.118;2023-04-06T02:00:46;-1.90;98.60
8067;DHT22;4076;48.076;9.118;2023-04-06T02:03:11;-2.00;98.80
8067;DHT22;4076;48.076;9.118;2023-04-06T02:05:37;-2.00;99.10
8067;DHT22;4076;48.076;9.118;2023-04-06T02:08:06;-2.00;98.90
8067;DHT22;4076;48.076;9.118;2023-04-06T02:10:35;-2.00;99.00
8067;DHT22;4076;48.076;9.118;2023-04-06T02:13:01;-2.10;99.40
8067;DHT22;4076;48.076;9.118;2023-04-06T02:15:27;-2.10;99.90
8067;DHT22;4076;48.076;9.118;2023-04-06T02:17:53;-2.20;99.90
8067;DHT22;4076;48.076;9.118;2023-04-06T02:20:18;-2.20;99.90
8067;DHT22;4076;48.076;9.118;2023-04-06T02:22:44;-2.30;99.90
8067;DHT22;4076;48.076;9.118;2023-04-06T02:25:10;-2.20;99.90
8067;DHT22;4076;48.076;9.118;2023-04-06T02:27:36;-2.10;99.90
8067;DHT22;4076;48.076;9.118;2023-04-06T02:30:02;-2.20;99.90
8067;DHT22;4076;48.076;9.118;2023-04-06T02:32:28;-2.20;99.90
8067;DHT22;4076;48.076;9.118;2023-04-06T02:34:54;-2.20;99.90
8067;DHT22;4076;48.076;9.118;2023-04-06T02:37:19;-2.20;99.90
8067;DHT22;4076;48.076;9.118;2023-04-06T02:39:45;-2.20;99.90
8067;DHT22;4076;48.076;9.118;2023-04-06T02:42:11;-2.20;99.90
8067;DHT22;4076;48.076;9.118;2023-04-06T02:44:36;-2.20;99.90
8067;DHT22;4076;48.076;9.118;2023-04-06T02:47:02;-2.20;99.90
8067;DHT22;4076;48.076;9.118;2023-04-06T02:49:27;-2.30;99.90
8067;DHT22;4076;48.076;9.118;2023-04-06T02:51:53;-2.40;99.90
8067;DHT22;4076;48.076;9.118;2023-04-06T02:54:19;-2.50;99.90
8067;DHT22;4076;48.076;9.118;2023-04-06T02:56:44;-2.60;99.90
8067;DHT22;4076;48.076;9.118;2023-04-06T02:59:10;-2.70;99.90
8067;DHT22;4076;48.076;9.118;2023-04-06T03:01:36;-2.80;99.90
8067;DHT22;4076;48.076;9.118;2023-04-06T03:04:02;-2.80;99.90
8067;DHT22;4076;48.076;9.118;2023-04-06T03:06:27;-2.90;99.90
8067;DHT22;4076;48.076;9.118;2023-04-06T03:08:53;-2.90;99.90
8067;DHT22;4076;48.076;9.118;2023-04-06T03:11:19;-2.80;99.90
8067;DHT22;4076;48.076;9.118;2023-04-06T03:13:44;-2.70;99.90
8067;DHT22;4076;48.076;9.118;2023-04-06T03:16:10;-2.80;99.90
8067;DHT22;4076;48.076;9.118;2023-04-06T03:18:36;-2.80;99.90
8067;DHT22;4076;48.076;9.118;2023-04-06T03:21:01;-2.80;99.90
8067;DHT22;4076;48.076;9.118;2023-04-06T03:23:27;-2.80;99.90
8067;DHT22;4076;48.076;9.118;2023-04-06T03:25:52;-2.80;99.90
8067;DHT22;4076;48.076;9.118;2023-04-06T03:28:18;-2.90;99.90
8067;DHT22;4076;48.076;9.118;2023-04-06T03:30:44;-2.90;99.90
8067;DHT22;4076;48.076;9.118;2023-04-06T03:33:10;-2.90;99.90
8067;DHT22;4076;48.076;9.118;2023-04-06T03:35:36;-2.80;99.90
8067;DHT22;4076;48.076;9.118;2023-04-06T03:38:02;-2.80;99.90
8067;DHT22;4076;48.076;9.118;2023-04-06T03:40:28;-2.90;99.90
8067;DHT22;4076;48.076;9.118;2023-04-06T03:42:54;-2.90;99.90
8067;DHT22;4076;48.076;9.118;2023-04-06T03:45:19;-3.00;99.90
8067;DHT22;4076;48.076;9.118;2023-04-06T03:47:46;-3.00;99.90
8067;DHT22;4076;48.076;9.118;2023-04-06T03:50:11;-3.10;99.90
8067;DHT22;4076;48.076;9.118;2023-04-06T03:52:37;-3.10;99.90
8067;DHT22;4076;48.076;9.118;2023-04-06T03:55:03;-3.20;99.90
8067;DHT22;4076;48.076;9.118;2023-04-06T03:57:28;-3.20;99.90
8067;DHT22;4076;48.076;9.118;2023-04-06T03:59:54;-3.10;99.90
8067;DHT22;4076;48.076;9.118;2023-04-06T04:02:19;-3.10;99.90
8067;DHT22;4076;48.076;9.118;2023-04-06T04:04:45;-3.20;99.90
8067;DHT22;4076;48.076;9.118;2023-04-06T04:07:10;-3.30;99.90
8067;DHT22;4076;48.076;9.118;2023-04-06T04:09:36;-3.40;99.90
8067;DHT22;4076;48.076;9.118;2023-04-06T04:12:02;-3.30;99.90
8067;DHT22;4076;48.076;9.118;2023-04-06T04:14:28;-3.30;99.90
8067;DHT22;4076;48.076;9.118;2023-04-06T04:16:53;-3.30;99.90
8067;DHT22;4076;48.076;9.118;2023-04-06T04:19:19;-3.20;99.90
8067;DHT22;4076;48.076;9.118;2023-04-06T04:21:46;-3.20;99.90
8067;DHT22;4076;48.076;9.118;2023-04-06T04:24:12;-3.10;99.90
8067;DHT22;4076;48.076;9.118;2023-04-06T04:26:38;-3.10;99.90
8067;DHT22;4076;48.076;9.118;2023-04-06T04:29:04;-3.10;99.90
8067;DHT22;4076;48.076;9.118;2023-04-06T04:31:30;-3.00;99.90
8067;DHT22;4076;48.076;9.118;2023-04-06T04:33:56;-3.10;99.90
8067;DHT22;4076;48.076;9.118;2023-04-06T04:36:21;-3.20;99.90
8067;DHT22;4076;48.076;9.118;2023-04-06T04:38:47;-3.20;99.90
8067;DHT22;4076;48.076;9.118;2023-04-06T04:41:12;-3.20;99.90
8067;DHT22;4076;48.076;9.118;2023-04-06T04:43:38;-3.10;99.90
8067;DHT22;4076;48.076;9.118;2023-04-06T04:46:04;-3.10;99.90
8067;DHT22;4076;48.076;9.118;2023-04-06T04:48:30;-3.10;99.90
8067;DHT22;4076;48.076;9.118;2023-04-06T04:50:55;-3.10;99.90
8067;DHT22;4076;48.076;9.118;2023-04-06T04:53:21;-3.20;99.90
8067;DHT22;4076;48.076;9.118;2023-04-06T04:55:47;-3.10;99.90
8067;DHT22;4076;48.076;9.118;2023-04-06T04:58:12;-3.10;99.90
8067;DHT22;4076;48.076;9.118;2023-04-06T05:00:42;-3.00;99.90
8067;DHT22;4076;48.076;9.118;2023-04-06T05:03:08;-3.00;99.90
8067;DHT22;4076;48.076;9.118;2023-04-06T05:05:34;-2.90;99.90
8067;DHT22;4076;48.076;9.118;2023-04-06T05:08:01;-2.90;99.90
8067;DHT22;4076;48.076;9.118;2023-04-06T05:10:26;-2.90;99.90
8067;DHT22;4076;48.076;9.118;2023-04-06T05:12:52;-2.90;99.90
8067;DHT22;4076;48.076;9.118;2023-04-06T05:15:17;-2.90;99.90
8067;DHT22;4076;48.076;9.118;2023-04-06T05:17:43;-2.90;99.90
8067;DHT22;4076;48.076;9.118;2023-04-06T05:20:09;-2.70;99.90
8067;DHT22;4076;48.076;9.118;2023-04-06T05:22:35;-2.60;99.90
8067;DHT22;4076;48.076;9.118;2023-04-06T05:25:02;-2.50;99.90
8067;DHT22;4076;48.076;9.118;2023-04-06T05:27:28;-2.40;99.90
8067;DHT22;4076;48.076;9.118;2023-04-06T05:29:54;-2.20;99.90
8067;DHT22;4076;48.076;9.118;2023-04-06T05:32:20;-2.10;99.90
8067;DHT22;4076;48.076;9.118;2023-04-06T05:34:48;-2.10;99.90
8067;DHT22;4076;48.076;9.118;2023-04-06T05:37:14;-2.00;99.90
8067;DHT22;4076;48.076;9.118;2023-04-06T05:39:40;-1.90;99.90
8067;DHT22;4076;48.076;9.118;2023-04-06T05:42:06;-1.60;99.90
8067;DHT22;4076;48.076;9.118;2023-04-06T05:44:32;-1.30;99.90
8067;DHT22;4076;48.076;9.118;2023-04-06T05:46:57;-1.00;99.90
8067;DHT22;4076;48.076;9.118;2023-04-06T05:49:23;-0.80;99.90
8067;DHT22;4076;48.076;9.118;2023-04-06T05:51:48;-0.60;99.90
8067;DHT22;4076;48.076;9.118;2023-04-06T05:54:14;-0.50;99.90
8067;DHT22;4076;48.076;9.118;2023-04-06T05:56:40;-0.30;99.90
8067;DHT22;4076;48.076;9.118;2023-04-06T05:59:06;-0.20;99.90
8067;DHT22;4076;48.076;9.118;2023-04-06T06:01:33;0.00;99.90
8067;DHT22;4076;48.076;9.118;2023-04-06T06:04:00;0.20;99.90
8067;DHT22;4076;48.076;9.118;2023-04-06T06:06:27;0.30;99.90
8067;DHT22;4076;48.076;9.118;2023-04-06T06:08:55;0.50;99.90
8067;DHT22;4076;48.076;9.118;2023-04-06T06:11:24;0.80;99.90
8067;DHT22;4076;48.076;9.118;2023-04-06T06:13:50;1.00;99.90
8067;DHT22;4076;48.076;9.118;2023-04-06T06:16:18;1.20;99.90
8067;DHT22;4076;48.076;9.118;2023-04-06T06:18:43;1.50;99.90
8067;DHT22;4076;48.076;9.118;2023-04-06T06:21:09;1.80;99.90
8067;DHT22;4076;48.076;9.118;2023-04-06T06:23:36;2.20;99.90
8067;DHT22;4076;48.076;9.118;2023-04-06T06:26:02;2.70;99.90
8067;DHT22;4076;48.076;9.118;2023-04-06T06:28:28;3.30;99.80
8067;DHT22;4076;48.076;9.118;2023-04-06T06:30:53;4.00;97.20
8067;DHT22;4076;48.076;9.118;2023-04-06T06:33:19;4.80;89.90
8067;DHT22;4076;48.076;9.118;2023-04-06T06:35:45;5.10;73.10
8067;DHT22;4076;48.076;9.118;2023-04-06T06:38:10;5.70;72.30
8067;DHT22;4076;48.076;9.118;2023-04-06T06:40:36;6.50;75.90
8067;DHT22;4076;48.076;9.118;2023-04-06T06:43:02;7.70;70.60
8067;DHT22;4076;48.076;9.118;2023-04-06T06:45:28;8.80;62.40
8067;DHT22;4076;48.076;9.118;2023-04-06T06:47:55;9.70;57.40
8067;DHT22;4076;48.076;9.118;2023-04-06T06:50:20;10.20;51.60
8067;DHT22;4076;48.076;9.118;2023-04-06T06:52:46;10.30;52.40
8067;DHT22;4076;48.076;9.118;2023-04-06T06:55:11;10.20;48.90
8067;DHT22;4076;48.076;9.118;2023-04-06T06:57:37;10.30;47.40
8067;DHT22;4076;48.076;9.118;2023-04-06T07:00:04;10.80;49.00
8067;DHT22;4076;48.076;9.118;2023-04-06T07:02:30;11.30;44.80
8067;DHT22;4076;48.076;9.118;2023-04-06T07:04:56;11.90;44.50
8067;DHT22;4076;48.076;9.118;2023-04-06T07:07:22;12.50;47.80
8067;DHT22;4076;48.076;9.118;2023-04-06T07:09:47;13.20;41.00
8067;DHT22;4076;48.076;9.118;2023-04-06T07:12:13;14.20;40.20
8067;DHT22;4076;48.076;9.118;2023-04-06T07:14:39;15.00;37.90
8067;DHT22;4076;48.076;9.118;2023-04-06T07:17:04;15.90;37.40
8067;DHT22;4076;48.076;9.118;2023-04-06T07:19:30;16.50;34.50
8067;DHT22;4076;48.076;9.118;2023-04-06T07:21:56;17.20;33.40
8067;DHT22;4076;48.076;9.118;2023-04-06T07:24:21;18.30;33.50
8067;DHT22;4076;48.076;9.118;2023-04-06T07:26:48;19.20;30.60
8067;DHT22;4076;48.076;9.118;2023-04-06T07:29:14;20.10;30.70
8067;DHT22;4076;48.076;9.118;2023-04-06T07:31:39;21.00;29.80
8067;DHT22;4076;48.076;9.118;2023-04-06T07:34:05;21.50;28.50
8067;DHT22;4076;48.076;9.118;2023-04-06T07:36:30;21.30;28.30
8067;DHT22;4076;48.076;9.118;2023-04-06T07:38:56;21.90;28.00
8067;DHT22;4076;48.076;9.118;2023-04-06T07:41:22;23.20;27.50
8067;DHT22;4076;48.076;9.118;2023-04-06T07:43:48;24.60;27.30
8067;DHT22;4076;48.076;9.118;2023-04-06T07:46:13;24.70;25.90
8067;DHT22;4076;48.076;9.118;2023-04-06T07:48:39;25.40;25.10
8067;DHT22;4076;48.076;9.118;2023-04-06T07:51:05;26.20;26.80
8067;DHT22;4076;48.076;9.118;2023-04-06T07:53:31;26.90;23.70
8067;DHT22;4076;48.076;9.118;2023-04-06T07:56:00;27.30;24.40
8067;DHT22;4076;48.076;9.118;2023-04-06T08:03:18;29.90;24.60
8067;DHT22;4076;48.076;9.118;2023-04-06T08:05:46;30.10;23.60
8067;DHT22;4076;48.076;9.118;2023-04-06T08:08:11;30.40;23.70
8067;DHT22;4076;48.076;9.118;2023-04-06T08:10:37;31.20;23.30
8067;DHT22;4076;48.076;9.118;2023-04-06T08:13:02;31.90;25.20
8067;DHT22;4076;48.076;9.118;2023-04-06T08:15:28;32.50;26.60
8067;DHT22;4076;48.076;9.118;2023-04-06T08:17:53;33.30;23.20
8067;DHT22;4076;48.076;9.118;2023-04-06T08:20:22;33.80;22.10
8067;DHT22;4076;48.076;9.118;2023-04-06T08:22:48;34.20;21.40
8067;DHT22;4076;48.076;9.118;2023-04-06T08:25:13;34.80;24.00
8067;DHT22;4076;48.076;9.118;2023-04-06T08:27:39;34.60;24.40
8067;DHT22;4076;48.076;9.118;2023-04-06T08:30:05;33.40;24.20
8067;DHT22;4076;48.076;9.118;2023-04-06T08:32:31;33.10;24.70
8067;DHT22;4076;48.076;9.118;2023-04-06T08:34:56;33.00;24.40
8067;DHT22;4076;48.076;9.118;2023-04-06T08:37:22;32.60;24.50
8067;DHT22;4076;48.076;9.118;2023-04-06T08:39:48;32.00;24.70
8067;DHT22;4076;48.076;9.118;2023-04-06T08:42:20;31.30;24.60
8067;DHT22;4076;48.076;9.118;2023-04-06T08:44:47;31.30;24.40
8067;DHT22;4076;48.076;9.118;2023-04-06T08:47:13;31.50;24.60
8067;DHT22;4076;48.076;9.118;2023-04-06T08:49:39;31.70;24.10
8067;DHT22;4076;48.076;9.118;2023-04-06T08:52:06;31.30;24.00
8067;DHT22;4076;48.076;9.118;2023-04-06T08:54:33;31.60;23.90
8067;DHT22;4076;48.076;9.118;2023-04-06T08:56:59;31.20;25.80
8067;DHT22;4076;48.076;9.118;2023-04-06T08:59:25;31.10;25.90
8067;DHT22;4076;48.076;9.118;2023-04-06T09:01:51;32.10;25.60
8067;DHT22;4076;48.076;9.118;2023-04-06T09:04:18;32.90;24.90
8067;DHT22;4076;48.076;9.118;2023-04-06T09:06:43;33.70;24.20
8067;DHT22;4076;48.076;9.118;2023-04-06T09:09:09;34.70;24.80
8067;DHT22;4076;48.076;9.118;2023-04-06T09:11:46;34.20;23.90
8067;DHT22;4076;48.076;9.118;2023-04-06T09:14:11;33.50;24.50
8067;DHT22;4076;48.076;9.118;2023-04-06T09:16:41;33.90;24.60
8067;DHT22;4076;48.076;9.118;2023-04-06T09:19:07;34.70;24.30
8067;DHT22;4076;48.076;9.118;2023-04-06T09:21:33;35.60;23.90
8067;DHT22;4076;48.076;9.118;2023-04-06T09:24:00;35.30;23.20
8067;DHT22;4076;48.076;9.118;2023-04-06T09:26:26;35.20;23.80
8067;DHT22;4076;48.076;9.118;2023-04-06T09:28:57;34.90;23.20
8067;DHT22;4076;48.076;9.118;2023-04-06T09:31:29;34.10;23.50
8067;DHT22;4076;48.076;9.118;2023-04-06T09:33:56;34.00;23.20
8067;DHT22;4076;48.076;9.118;2023-04-06T09:36:33;34.20;23.30
8067;DHT22;4076;48.076;9.118;2023-04-06T09:39:03;33.90;23.10
8067;DHT22;4076;48.076;9.118;2023-04-06T09:41:31;32.50;24.00
8067;DHT22;4076;48.076;9.118;2023-04-06T09:44:07;32.10;26.30
8067;DHT22;4076;48.076;9.118;2023-04-06T09:46:35;32.00;27.70
8067;DHT22;4076;48.076;9.118;2023-04-06T09:49:04;32.30;27.80
8067;DHT22;4076;48.076;9.118;2023-04-06T09:51:31;31.40;18.90
8067;DHT22;4076;48.076;9.118;2023-04-06T09:53:59;31.20;18.80
8067;DHT22;4076;48.076;9.118;2023-04-06T09:56:30;31.00;18.90
8067;DHT22;4076;48.076;9.118;2023-04-06T09:59:02;29.10;19.10
8067;DHT22;4076;48.076;9.118;2023-04-06T10:01:30;26.20;20.70
8067;DHT22;4076;48.076;9.118;2023-04-06T10:06:38;22.20;22.90
8067;DHT22;4076;48.076;9.118;2023-04-06T10:09:05;20.90;22.50
8067;DHT22;4076;48.076;9.118;2023-04-06T10:11:33;20.30;23.20
8067;DHT22;4076;48.076;9.118;2023-04-06T10:14:00;20.00;24.60
8067;DHT22;4076;48.076;9.118;2023-04-06T10:16:25;19.60;24.20
8067;DHT22;4076;48.076;9.118;2023-04-06T10:18:57;19.40;24.40
8067;DHT22;4076;48.076;9.118;2023-04-06T10:21:25;19.30;24.90
8067;DHT22;4076;48.076;9.118;2023-04-06T10:24:00;18.80;24.40
8067;DHT22;4076;48.076;9.118;2023-04-06T10:26:26;18.40;25.00
8067;DHT22;4076;48.076;9.118;2023-04-06T10:28:52;18.10;25.40
8067;DHT22;4076;48.076;9.118;2023-04-06T10:31:27;18.20;25.60
8067;DHT22;4076;48.076;9.118;2023-04-06T10:34:01;18.20;25.80
8067;DHT22;4076;48.076;9.118;2023-04-06T10:36:34;18.00;25.30
8067;DHT22;4076;48.076;9.118;2023-04-06T10:39:02;17.60;25.50
8067;DHT22;4076;48.076;9.118;2023-04-06T10:41:43;17.40;26.50
8067;DHT22;4076;48.076;9.118;2023-04-06T10:44:21;17.60;26.00
8067;DHT22;4076;48.076;9.118;2023-04-06T10:46:58;17.70;25.70
8067;DHT22;4076;48.076;9.118;2023-04-06T10:49:25;17.50;25.60
8067;DHT22;4076;48.076;9.118;2023-04-06T10:51:56;17.20;26.10
8067;DHT22;4076;48.076;9.118;2023-04-06T10:54:23;17.20;27.30
8067;DHT22;4076;48.076;9.118;2023-04-06T10:56:49;16.90;27.20
8067;DHT22;4076;48.076;9.118;2023-04-06T10:59:21;16.50;27.00
8067;DHT22;4076;48.076;9.118;2023-04-06T11:01:49;16.10;26.80
8067;DHT22;4076;48.076;9.118;2023-04-06T11:04:18;15.80;27.20
8067;DHT22;4076;48.076;9.118;2023-04-06T11:06:47;15.70;27.50
8067;DHT22;4076;48.076;9.118;2023-04-06T11:09:23;15.60;27.80
8067;DHT22;4076;48.076;9.118;2023-04-06T11:11:50;15.60;28.20
8067;DHT22;4076;48.076;9.118;2023-04-06T11:14:16;15.70;28.00
8067;DHT22;4076;48.076;9.118;2023-04-06T11:16:41;15.90;28.30
8067;DHT22;4076;48.076;9.118;2023-04-06T11:19:07;16.00;27.70
8067;DHT22;4076;48.076;9.118;2023-04-06T11:21:41;15.60;27.50
8067;DHT22;4076;48.076;9.118;2023-04-06T11:24:22;15.30;28.50
8067;DHT22;4076;48.076;9.118;2023-04-06T11:26:56;15.40;28.80
8067;DHT22;4076;48.076;9.118;2023-04-06T11:29:31;15.60;29.50
8067;DHT22;4076;48.076;9.118;2023-04-06T11:32:01;15.60;29.30
8067;DHT22;4076;48.076;9.118;2023-04-06T11:34:35;15.60;29.00
8067;DHT22;4076;48.076;9.118;2023-04-06T11:37:08;15.30;29.80
8067;DHT22;4076;48.076;9.118;2023-04-06T11:39:47;15.10;29.10
8067;DHT22;4076;48.076;9.118;2023-04-06T11:42:20;15.10;29.60
8067;DHT22;4076;48.076;9.118;2023-04-06T11:44:46;15.30;30.00
8067;DHT22;4076;48.076;9.118;2023-04-06T11:47:12;15.50;29.70
8067;DHT22;4076;48.076;9.118;2023-04-06T11:49:39;15.60;28.80
8067;DHT22;4076;48.076;9.118;2023-04-06T11:52:22;15.50;28.50
8067;DHT22;4076;48.076;9.118;2023-04-06T11:54:49;15.50;29.90
8067;DHT22;4076;48.076;9.118;2023-04-06T11:57:15;15.10;29.30
8067;DHT22;4076;48.076;9.118;2023-04-06T11:59:41;14.70;29.90
8067;DHT22;4076;48.076;9.118;2023-04-06T12:02:07;14.50;30.10
8067;DHT22;4076;48.076;9.118;2023-04-06T12:04:33;14.60;30.10
8067;DHT22;4076;48.076;9.118;2023-04-06T12:06:58;14.60;30.30
8067;DHT22;4076;48.076;9.118;2023-04-06T12:09:24;14.70;29.90
8067;DHT22;4076;48.076;9.118;2023-04-06T12:11:50;15.00;30.00
8067;DHT22;4076;48.076;9.118;2023-04-06T12:14:16;15.40;30.10
8067;DHT22;4076;48.076;9.118;2023-04-06T12:16:42;15.70;30.10
8067;DHT22;4076;48.076;9.118;2023-04-06T12:19:07;15.70;29.80
8067;DHT22;4076;48.076;9.118;2023-04-06T12:21:34;15.30;29.50
8067;DHT22;4076;48.076;9.118;2023-04-06T12:24:02;15.00;30.00
8067;DHT22;4076;48.076;9.118;2023-04-06T12:26:28;15.00;30.80
8067;DHT22;4076;48.076;9.118;2023-04-06T12:28:53;15.00;30.60
8067;DHT22;4076;48.076;9.118;2023-04-06T12:31:21;14.90;30.00
8067;DHT22;4076;48.076;9.118;2023-04-06T12:33:48;14.70;30.40
8067;DHT22;4076;48.076;9.118;2023-04-06T12:36:14;14.60;31.20
8067;DHT22;4076;48.076;9.118;2023-04-06T12:38:41;14.50;31.60
8067;DHT22;4076;48.076;9.118;2023-04-06T12:41:07;14.40;30.00
8067;DHT22;4076;48.076;9.118;2023-04-06T12:43:33;14.30;30.30
8067;DHT22;4076;48.076;9.118;2023-04-06T12:45:59;14.30;30.10
8067;DHT22;4076;48.076;9.118;2023-04-06T12:48:25;14.20;30.10
8067;DHT22;4076;48.076;9.118;2023-04-06T12:51:00;14.20;30.90
8067;DHT22;4076;48.076;9.118;2023-04-06T12:53:26;14.20;30.10
8067;DHT22;4076;48.076;9.118;2023-04-06T12:55:52;14.20;29.00
8067;DHT22;4076;48.076;9.118;2023-04-06T12:58:19;14.00;28.90
8067;DHT22;4076;48.076;9.118;2023-04-06T13:00:46;14.00;28.80
8067;DHT22;4076;48.076;9.118;2023-04-06T13:03:11;14.00;29.20
8067;DHT22;4076;48.076;9.118;2023-04-06T13:05:43;13.80;28.90
8067;DHT22;4076;48.076;9.118;2023-04-06T13:08:10;13.80;29.40
8067;DHT22;4076;48.076;9.118;2023-04-06T13:10:36;13.90;29.40
8067;DHT22;4076;48.076;9.118;2023-04-06T13:13:01;14.00;29.10
8067;DHT22;4076;48.076;9.118;2023-04-06T13:15:27;13.90;29.20
8067;DHT22;4076;48.076;9.118;2023-04-06T13:17:52;14.00;28.90
8067;DHT22;4076;48.076;9.118;2023-04-06T13:20:18;14.10;30.50
8067;DHT22;4076;48.076;9.118;2023-04-06T13:22:43;14.40;30.40
8067;DHT22;4076;48.076;9.118;2023-04-06T13:25:09;14.40;31.40
8067;DHT22;4076;48.076;9.118;2023-04-06T13:27:34;14.40;31.90
8067;DHT22;4076;48.076;9.118;2023-04-06T13:30:01;14.40;30.40
8067;DHT22;4076;48.076;9.118;2023-04-06T13:32:27;14.20;29.10
8067;DHT22;4076;48.076;9.118;2023-04-06T13:34:57;13.80;29.10
8067;DHT22;4076;48.076;9.118;2023-04-06T13:37:22;13.50;29.10
8067;DHT22;4076;48.076;9.118;2023-04-06T13:39:48;13.30;30.00
8067;DHT22;4076;48.076;9.118;2023-04-06T13:42:14;13.00;29.50
8067;DHT22;4076;48.076;9.118;2023-04-06T13:44:39;12.80;30.10
8067;DHT22;4076;48.076;9.118;2023-04-06T13:47:05;12.70;30.00
8067;DHT22;4076;48.076;9.118;2023-04-06T13:49:31;12.80;30.60
8067;DHT22;4076;48.076;9.118;2023-04-06T13:51:57;13.10;30.80
8067;DHT22;4076;48.076;9.118;2023-04-06T13:54:23;13.30;31.00
8067;DHT22;4076;48.076;9.118;2023-04-06T13:56:48;13.30;31.40
8067;DHT22;4076;48.076;9.118;2023-04-06T13:59:14;13.40;31.40
8067;DHT22;4076;48.076;9.118;2023-04-06T14:01:40;13.50;31.80
8067;DHT22;4076;48.076;9.118;2023-04-06T14:04:06;13.60;32.30
8067;DHT22;4076;48.076;9.118;2023-04-06T14:06:31;13.50;31.30
8067;DHT22;4076;48.076;9.118;2023-04-06T14:08:57;13.50;32.00
8067;DHT22;4076;48.076;9.118;2023-04-06T14:11:23;13.80;32.00
8067;DHT22;4076;48.076;9.118;2023-04-06T14:13:49;13.90;31.00
8067;DHT22;4076;48.076;9.118;2023-04-06T14:16:14;13.90;31.10
8067;DHT22;4076;48.076;9.118;2023-04-06T14:18:40;13.70;32.90
8067;DHT22;4076;48.076;9.118;2023-04-06T14:21:06;13.90;33.00
8067;DHT22;4076;48.076;9.118;2023-04-06T14:23:32;14.10;33.00
8067;DHT22;4076;48.076;9.118;2023-04-06T14:26:04;14.30;31.80
8067;DHT22;4076;48.076;9.118;2023-04-06T14:28:32;14.40;31.50
8067;DHT22;4076;48.076;9.118;2023-04-06T14:30:59;14.30;31.00
8067;DHT22;4076;48.076;9.118;2023-04-06T14:33:29;14.10;31.40
8067;DHT22;4076;48.076;9.118;2023-04-06T14:35:55;13.80;30.00
8067;DHT22;4076;48.076;9.118;2023-04-06T14:38:21;13.50;31.40
8067;DHT22;4076;48.076;9.118;2023-04-06T14:40:47;13.30;31.50
8067;DHT22;4076;48.076;9.118;2023-04-06T14:43:13;13.10;31.00
8067;DHT22;4076;48.076;9.118;2023-04-06T14:45:39;13.20;31.90
8067;DHT22;4076;48.076;9.118;2023-04-06T14:48:05;13.30;32.00
8067;DHT22;4076;48.076;9.118;2023-04-06T14:50:32;13.40;31.50
8067;DHT22;4076;48.076;9.118;2023-04-06T14:52:58;13.40;31.50
8067;DHT22;4076;48.076;9.118;2023-04-06T14:55:25;13.30;31.00
8067;DHT22;4076;48.076;9.118;2023-04-06T14:57:50;13.10;31.40
8067;DHT22;4076;48.076;9.118;2023-04-06T15:00:16;13.20;31.70
8067;DHT22;4076;48.076;9.118;2023-04-06T15:02:42;13.00;30.50
8067;DHT22;4076;48.076;9.118;2023-04-06T15:05:08;12.90;30.90
8067;DHT22;4076;48.076;9.118;2023-04-06T15:07:34;12.70;31.70
8067;DHT22;4076;48.076;9.118;2023-04-06T15:10:00;12.70;31.80
8067;DHT22;4076;48.076;9.118;2023-04-06T15:12:26;12.70;32.50
8067;DHT22;4076;48.076;9.118;2023-04-06T15:14:51;12.90;32.70
8067;DHT22;4076;48.076;9.118;2023-04-06T15:17:17;13.20;32.30
8067;DHT22;4076;48.076;9.118;2023-04-06T15:19:42;13.40;31.20
8067;DHT22;4076;48.076;9.118;2023-04-06T15:22:08;13.30;30.30
8067;DHT22;4076;48.076;9.118;2023-04-06T15:24:33;13.20;31.00
8067;DHT22;4076;48.076;9.118;2023-04-06T15:26:59;13.10;31.20
8067;DHT22;4076;48.076;9.118;2023-04-06T15:29:25;13.20;31.40
8067;DHT22;4076;48.076;9.118;2023-04-06T15:31:51;13.30;31.50
8067;DHT22;4076;48.076;9.118;2023-04-06T15:34:16;13.30;31.20
8067;DHT22;4076;48.076;9.118;2023-04-06T15:36:42;13.40;31.40
8067;DHT22;4076;48.076;9.118;2023-04-06T15:39:09;13.40;31.60
8067;DHT22;4076;48.076;9.118;2023-04-06T15:41:35;13.50;32.00
8067;DHT22;4076;48.076;9.118;2023-04-06T15:44:01;13.60;32.20
8067;DHT22;4076;48.076;9.118;2023-04-06T15:46:26;13.60;31.70
8067;DHT22;4076;48.076;9.118;2023-04-06T15:48:52;13.70;31.70
8067;DHT22;4076;48.076;9.118;2023-04-06T15:51:18;13.70;30.90
8067;DHT22;4076;48.076;9.118;2023-04-06T15:53:44;13.70;31.30
8067;DHT22;4076;48.076;9.118;2023-04-06T15:56:09;13.60;31.60
8067;DHT22;4076;48.076;9.118;2023-04-06T15:58:35;13.60;32.50
8067;DHT22;4076;48.076;9.118;2023-04-06T16:01:09;13.50;32.30
8067;DHT22;4076;48.076;9.118;2023-04-06T16:03:35;13.50;32.10
8067;DHT22;4076;48.076;9.118;2023-04-06T16:06:00;13.40;30.90